Time;durP1;ratioP1;P1;durP2;ratioP2;P2;SDS_P1;SDS_P2;PMS_P1;PMS_P2;Temp;Humidity;BMP_temperature;BMP_pressure;BME280_temperature;BME280_humidity;BME280_pressure;Samples;Min_cycle;Max_cycle;Signal;HPM_P1;HPM_P2
2023/03/21 00:02:39;;;;;;;;;;;;;;;;;;4742798;30;20536;-77
2023/03/21 00:05:05;;;;;;;0.10;0.10;;;;;;;;;;4734694;30;19976;-78
2023/03/21 01:33:52;;;;;;;;;;;;;;;;;;;;;
2023/03/21 01:43:54;;;;;;;;;;;;;;;;;;4821646;29;20097;-78
2023/03/21 01:50:02;;;;;;;0.10;0.10;;;;;;;;;;4814587;29;20111;-78
2023/03/21 03:27:41;;;;;;;0.10;0.10;;;;;;;;;;5060039;23;20467;-76
2023/03/21 03:30:09;;;;;;;0.20;0.20;;;;;;;;;;4840294;29;20057;-77
2023/03/21 03:32:43;;;;;;;0.10;0.10;;;;;;;;;;4840144;29;20049;-76
2023/03/21 03:35:10;;;;;;;0.10;0.10;;;;;;;;;;4841283;29;20057;-77
2023/03/21 03:37:38;;;;;;;0.20;0.20;;;;;;;;;;4857738;29;20042;-77
2023/03/21 03:40:04;;;;;;;0.20;0.20;;;;;;;;;;4858604;29;20048;-78
2023/03/21 03:42:43;;;;;;;0.10;0.10;;;;;;;;;;4851176;29;20400;-77
2023/03/21 03:45:12;;;;;;;0.13;0.13;;;;;;;;;;4858756;29;20049;-76
2023/03/21 03:47:45;;;;;;;0.10;0.10;;;;;;;;;;4839776;29;20133;-76
2023/03/21 05:10:15;;;;;;;0.10;0.10;;;;;;;;;;4896615;23;20164;-77
2023/03/21 05:12:41;;;;;;;0.20;0.20;;;;;;;;;;4830424;29;20122;-76
2023/03/21 05:15:07;;;;;;;0.10;0.10;;;;;;;;;;4827122;29;20410;-76
2023/03/21 05:17:33;;;;;;;0.10;0.10;;;;;;;;;;4816008;29;20069;-76
2023/03/21 05:20:00;;;;;;;0.10;0.10;;;;;;;;;;4822185;29;20081;-76
2023/03/21 05:22:27;;;;;;;0.10;0.10;;;;;;;;;;4821912;29;20061;-76
2023/03/21 05:24:54;;;;;;;0.20;0.20;;;;;;;;;;4837988;29;20058;-76
2023/03/21 05:27:33;;;;;;;0.10;0.10;;;;;;;;;;4820298;29;20047;-76
2023/03/21 05:30:09;;;;;;;0.10;0.10;;;;;;;;;;4841085;29;20045;-76
2023/03/21 06:20:40;;;;;;;0.20;0.20;;;;;;;;;;1388639;27;20133;-74
2023/03/21 06:23:06;;;;;;;0.10;0.10;;;;;;;;;;4822810;29;20102;-75
2023/03/21 06:25:32;;;;;;;0.10;0.10;;;;;;;;;;4818600;29;20110;-74
2023/03/21 06:27:59;;;;;;;0.10;0.10;;;;;;;;;;4833903;29;20129;-74
2023/03/21 06:30:25;;;;;;;0.10;0.10;;;;;;;;;;4822642;29;20054;-74
2023/03/21 06:32:51;;;;;;;0.17;0.17;;;;;;;;;;4822444;29;20407;-73
2023/03/21 06:35:18;;;;;;;0.20;0.20;;;;;;;;;;4834174;29;20058;-75
2023/03/21 06:37:44;;;;;;;0.17;0.17;;;;;;;;;;4821841;29;20046;-73
2023/03/21 06:40:12;;;;;;;0.10;0.10;;;;;;;;;;4835781;29;20056;-73
2023/03/21 06:42:41;;;;;;;0.10;0.10;;;;;;;;;;4838729;29;20060;-74
2023/03/21 06:45:07;;;;;;;0.20;0.20;;;;;;;;;;4824361;29;20073;-75
2023/03/21 06:47:33;;;;;;;0.10;0.10;;;;;;;;;;4823675;29;20057;-74
2023/03/21 06:49:59;;;;;;;0.15;0.15;;;;;;;;;;4823143;29;20495;-74
2023/03/21 06:52:28;;;;;;;0.10;0.10;;;;;;;;;;4824497;29;20072;-74
2023/03/21 06:54:55;;;;;;;0.17;0.17;;;;;;;;;;4836029;29;20049;-75
2023/03/21 06:57:27;;;;;;;0.10;0.10;;;;;;;;;;4823427;29;20058;-74
2023/03/21 06:59:53;;;;;;;0.20;0.20;;;;;;;;;;4823778;29;20049;-74
2023/03/21 07:02:19;;;;;;;0.20;0.20;;;;;;;;;;4838817;29;20057;-74
2023/03/21 07:04:46;;;;;;;0.20;0.20;;;;;;;;;;4836084;29;20080;-75
2023/03/21 07:07:12;;;;;;;0.20;0.20;;;;;;;;;;4819507;29;20057;-74
2023/03/21 07:09:41;;;;;;;0.10;0.10;;;;;;;;;;4827056;29;20046;-74
2023/03/21 07:12:07;;;;;;;0.20;0.20;;;;;;;;;;4822119;29;20050;-75
2023/03/21 07:14:33;;;;;;;0.15;0.15;;;;;;;;;;4839272;29;20142;-74
2023/03/21 07:16:59;;;;;;;0.10;0.10;;;;;;;;;;4850500;29;20089;-74
2023/03/21 07:19:26;;;;;;;0.10;0.10;;;;;;;;;;4839986;29;20060;-74
2023/03/21 07:21:55;;;;;;;0.10;0.10;;;;;;;;;;4823268;29;20065;-74
2023/03/21 07:24:21;;;;;;;0.10;0.10;;;;;;;;;;4823455;29;20134;-74
2023/03/21 07:26:52;;;;;;;0.10;0.10;;;;;;;;;;4822340;29;20060;-74
2023/03/21 07:29:21;;;;;;;0.20;0.20;;;;;;;;;;4839511;29;20050;-74
2023/03/21 07:31:47;;;;;;;0.20;0.20;;;;;;;;;;4838285;29;20132;-74
2023/03/21 07:34:15;;;;;;;0.10;0.10;;;;;;;;;;4824194;29;20046;-74
2023/03/21 07:36:41;;;;;;;0.10;0.10;;;;;;;;;;4822132;29;20407;-73
2023/03/21 07:39:07;;;;;;;0.10;0.10;;;;;;;;;;4824144;29;20057;-73
2023/03/21 07:41:33;;;;;;;0.10;0.10;;;;;;;;;;4839035;29;20263;-73
2023/03/21 07:43:59;;;;;;;0.10;0.10;;;;;;;;;;4823529;29;20391;-74
2023/03/21 07:46:25;;;;;;;0.10;0.10;;;;;;;;;;4821393;29;20390;-74
2023/03/21 07:48:54;;;;;;;0.20;0.20;;;;;;;;;;4823867;29;20045;-74
2023/03/21 07:51:21;;;;;;;0.10;0.10;;;;;;;;;;4821221;29;20049;-74
2023/03/21 07:53:48;;;;;;;0.10;0.10;;;;;;;;;;4823483;29;20076;-73
2023/03/21 07:56:14;;;;;;;0.10;0.10;;;;;;;;;;4837731;29;20538;-74
2023/03/21 07:58:44;;;;;;;0.10;0.10;;;;;;;;;;4838693;29;20053;-74
2023/03/21 08:01:10;;;;;;;0.20;0.20;;;;;;;;;;4837623;29;20042;-74
2023/03/21 08:03:36;;;;;;;0.20;0.20;;;;;;;;;;4822330;29;20054;-74
2023/03/21 08:06:03;;;;;;;0.13;0.13;;;;;;;;;;4819941;29;20050;-74
2023/03/21 08:08:29;;;;;;;0.20;0.20;;;;;;;;;;4821619;29;20050;-75
2023/03/21 08:10:55;;;;;;;0.20;0.20;;;;;;;;;;4820802;29;20134;-74
2023/03/21 08:13:21;;;;;;;0.20;0.20;;;;;;;;;;4821651;29;20046;-75
2023/03/21 08:15:48;;;;;;;0.20;0.20;;;;;;;;;;4845598;29;20061;-74
2023/03/21 08:18:14;;;;;;;0.10;0.10;;;;;;;;;;4822903;29;20404;-74
2023/03/21 08:20:43;;;;;;;0.10;0.10;;;;;;;;;;4823121;29;20501;-74
2023/03/21 08:23:09;;;;;;;0.10;0.10;;;;;;;;;;4837472;29;20058;-74
2023/03/21 08:25:35;;;;;;;0.10;0.10;;;;;;;;;;4822557;29;20088;-74
2023/03/21 08:28:01;;;;;;;0.10;0.10;;;;;;;;;;4839246;29;20054;-74
2023/03/21 08:30:28;;;;;;;0.13;0.13;;;;;;;;;;4839553;29;20053;-73
2023/03/21 08:33:00;;;;;;;0.20;0.20;;;;;;;;;;4838321;29;20125;-75
2023/03/21 08:35:26;;;;;;;0.10;0.10;;;;;;;;;;4823768;29;20058;-75
2023/03/21 08:37:52;;;;;;;0.10;0.10;;;;;;;;;;4844689;29;20038;-75
2023/03/21 08:40:21;;;;;;;0.10;0.10;;;;;;;;;;4822293;29;20081;-74
2023/03/21 08:42:47;;;;;;;0.10;0.10;;;;;;;;;;4837700;29;20125;-75
2023/03/21 08:45:15;;;;;;;0.10;0.10;;;;;;;;;;4839372;29;20433;-75
2023/03/21 08:47:41;;;;;;;0.10;0.10;;;;;;;;;;4822249;29;20049;-75
2023/03/21 08:50:10;;;;;;;0.10;0.10;;;;;;;;;;4823299;29;20490;-75
2023/03/21 08:52:36;;;;;;;0.20;0.20;;;;;;;;;;4838047;29;20041;-75
2023/03/21 08:55:03;;;;;;;0.10;0.10;;;;;;;;;;4837752;29;20058;-75
2023/03/21 08:57:29;;;;;;;0.15;0.15;;;;;;;;;;4837123;29;20137;-75
2023/03/21 08:59:55;;;;;;;0.10;0.10;;;;;;;;;;4822931;29;20058;-75
2023/03/21 09:02:22;;;;;;;0.10;0.10;;;;;;;;;;4819495;29;20085;-76
2023/03/21 09:04:57;;;;;;;0.10;0.10;;;;;;;;;;4837495;29;20046;-75
2023/03/21 09:07:25;;;;;;;0.10;0.10;;;;;;;;;;4836944;29;20046;-76
2023/03/21 09:09:52;;;;;;;0.10;0.10;;;;;;;;;;4833618;29;20074;-76
2023/03/21 09:12:19;;;;;;;0.20;0.20;;;;;;;;;;4837938;29;20058;-75
2023/03/21 09:14:48;;;;;;;0.10;0.10;;;;;;;;;;4816507;29;20049;-75
2023/03/21 09:17:15;;;;;;;0.10;0.10;;;;;;;;;;4819396;29;20531;-76
2023/03/21 09:19:41;;;;;;;0.10;0.10;;;;;;;;;;4825137;29;20045;-74
2023/03/21 09:22:13;;;;;;;0.10;0.10;;;;;;;;;;4835166;29;20438;-75
2023/03/21 09:24:41;;;;;;;0.15;0.15;;;;;;;;;;4833637;29;20042;-75
2023/03/21 09:27:07;;;;;;;0.20;0.20;;;;;;;;;;4834721;29;20167;-75
2023/03/21 09:29:33;;;;;;;0.10;0.10;;;;;;;;;;4818164;29;20038;-75
2023/03/21 09:32:00;;;;;;;0.17;0.17;;;;;;;;;;4835958;29;20049;-76
2023/03/21 09:34:27;;;;;;;0.20;0.20;;;;;;;;;;4816390;29;20093;-75
2023/03/21 09:36:55;;;;;;;0.10;0.10;;;;;;;;;;4834149;29;20042;-76
2023/03/21 09:39:22;;;;;;;0.10;0.10;;;;;;;;;;4818609;29;20053;-76
2023/03/21 09:41:55;;;;;;;0.17;0.17;;;;;;;;;;4819726;29;20498;-75
2023/03/21 09:44:40;;;;;;;0.10;0.10;;;;;;;;;;4821700;29;20376;-75
2023/03/21 09:47:31;;;;;;;0.10;0.10;;;;;;;;;;4810017;29;20042;-74
2023/03/21 09:50:07;;;;;;;0.17;0.17;;;;;;;;;;4840309;29;20050;-75
2023/03/21 09:53:06;;;;;;;0.10;0.10;;;;;;;;;;4824352;29;20499;-74
2023/03/21 09:55:36;;;;;;;0.10;0.10;;;;;;;;;;4832326;29;20606;-75
2023/03/21 09:58:05;;;;;;;0.10;0.10;;;;;;;;;;4823477;29;20042;-74
2023/03/21 10:00:35;;;;;;;0.20;0.20;;;;;;;;;;4825209;29;20139;-75
2023/03/21 10:03:05;;;;;;;0.10;0.10;;;;;;;;;;4839025;29;20054;-75
2023/03/21 10:05:33;;;;;;;0.20;0.20;;;;;;;;;;4839073;29;20045;-75
2023/03/21 10:08:05;;;;;;;0.20;0.20;;;;;;;;;;4817058;29;20130;-75
2023/03/21 10:10:40;;;;;;;0.10;0.10;;;;;;;;;;4822161;29;20123;-76
2023/03/21 10:13:13;;;;;;;0.20;0.20;;;;;;;;;;4818274;29;20057;-73
2023/03/21 10:15:39;;;;;;;0.20;0.20;;;;;;;;;;4820954;29;20046;-75
2023/03/21 10:18:06;;;;;;;0.20;0.20;;;;;;;;;;4822769;29;20136;-76
2023/03/21 10:20:33;;;;;;;0.10;0.10;;;;;;;;;;4825335;29;20114;-75
2023/03/21 10:23:01;;;;;;;0.20;0.20;;;;;;;;;;4841827;29;20057;-73
2023/03/21 10:25:37;;;;;;;0.20;0.20;;;;;;;;;;4823387;29;20096;-72
2023/03/21 10:28:05;;;;;;;0.20;0.20;;;;;;;;;;4823761;29;20074;-72
2023/03/21 10:30:43;;;;;;;0.10;0.10;;;;;;;;;;4823992;29;20056;-72
2023/03/21 10:33:12;;;;;;;0.10;0.10;;;;;;;;;;4822520;29;20045;-73
2023/03/21 10:35:40;;;;;;;0.15;0.15;;;;;;;;;;4824611;29;20046;-73
2023/03/21 10:38:07;;;;;;;0.10;0.10;;;;;;;;;;4825325;29;20049;-74
2023/03/21 10:40:33;;;;;;;0.20;0.20;;;;;;;;;;4838735;29;20085;-73
2023/03/21 10:43:15;;;;;;;0.10;0.10;;;;;;;;;;4822281;29;20042;-72
2023/03/21 10:45:41;;;;;;;0.15;0.15;;;;;;;;;;4824501;29;20121;-72
2023/03/21 10:48:07;;;;;;;0.10;0.10;;;;;;;;;;4840809;29;20046;-72
2023/03/21 10:50:35;;;;;;;0.20;0.20;;;;;;;;;;4838150;29;20537;-73
2023/03/21 10:53:02;;;;;;;0.20;0.20;;;;;;;;;;4819727;29;20126;-73
2023/03/21 10:55:32;;;;;;;0.10;0.10;;;;;;;;;;4832136;29;20058;-72
2023/03/21 10:58:01;;;;;;;0.10;0.10;;;;;;;;;;4806551;29;20053;-74
2023/03/21 11:00:28;;;;;;;0.10;0.10;;;;;;;;;;4818731;29;20073;-73
2023/03/21 11:02:56;;;;;;;0.10;0.10;;;;;;;;;;4817223;29;20053;-72
2023/03/21 11:05:36;;;;;;;0.20;0.20;;;;;;;;;;4834476;29;20582;-73
2023/03/21 11:08:05;;;;;;;0.20;0.20;;;;;;;;;;4814237;29;20142;-73
2023/03/21 11:10:36;;;;;;;0.20;0.20;;;;;;;;;;4833341;29;20395;-73
2023/03/21 11:13:07;;;;;;;0.13;0.13;;;;;;;;;;4822087;29;20210;-73
2023/03/21 11:15:50;;;;;;;0.10;0.10;;;;;;;;;;4835746;29;20504;-73
2023/03/21 11:18:21;;;;;;;0.20;0.20;;;;;;;;;;4840080;29;20046;-73
2023/03/21 11:20:51;;;;;;;0.20;0.20;;;;;;;;;;4839762;29;20061;-74
2023/03/21 11:23:18;;;;;;;0.10;0.10;;;;;;;;;;4823411;29;20057;-74
2023/03/21 11:25:47;;;;;;;0.15;0.15;;;;;;;;;;4840746;29;20083;-73
2023/03/21 11:28:14;;;;;;;0.10;0.10;;;;;;;;;;4838424;29;20053;-73
2023/03/21 11:30:57;;;;;;;0.20;0.20;;;;;;;;;;4821755;29;20137;-73
2023/03/21 11:33:30;;;;;;;0.20;0.20;;;;;;;;;;4837650;29;20054;-73
2023/03/21 11:36:00;;;;;;;0.20;0.20;;;;;;;;;;4838139;29;20049;-73
2023/03/21 11:38:29;;;;;;;0.10;0.10;;;;;;;;;;4837789;29;20046;-73
2023/03/21 11:41:02;;;;;;;0.10;0.10;;;;;;;;;;4823956;29;20050;-74
2023/03/21 11:43:32;;;;;;;0.10;0.10;;;;;;;;;;4822431;29;20057;-73
2023/03/21 11:45:58;;;;;;;0.15;0.15;;;;;;;;;;4840402;29;20234;-73
2023/03/21 11:48:25;;;;;;;0.15;0.15;;;;;;;;;;4838219;29;20050;-73
2023/03/21 11:50:55;;;;;;;0.10;0.10;;;;;;;;;;4822897;29;20057;-73
2023/03/21 11:53:30;;;;;;;0.20;0.20;;;;;;;;;;4823445;29;20050;-73
2023/03/21 11:56:05;;;;;;;0.20;0.20;;;;;;;;;;4823204;29;20046;-74
2023/03/21 11:58:46;;;;;;;0.10;0.10;;;;;;;;;;4838301;29;20042;-73
2023/03/21 12:01:16;;;;;;;0.20;0.20;;;;;;;;;;4840312;29;20052;-73
2023/03/21 12:03:49;;;;;;;0.20;0.20;;;;;;;;;;4823385;29;20110;-73
2023/03/21 12:06:27;;;;;;;0.10;0.10;;;;;;;;;;4823582;29;20057;-73
2023/03/21 12:08:58;;;;;;;0.20;0.20;;;;;;;;;;4822485;29;20049;-74
2023/03/21 12:11:37;;;;;;;0.20;0.20;;;;;;;;;;4803599;29;20069;-73
2023/03/21 12:14:26;;;;;;;0.10;0.10;;;;;;;;;;4832475;29;20399;-73
2023/03/21 12:17:04;;;;;;;0.10;0.10;;;;;;;;;;4820977;29;20069;-74
2023/03/21 12:19:32;;;;;;;0.10;0.10;;;;;;;;;;4839533;29;20098;-74
2023/03/21 12:22:07;;;;;;;0.10;0.10;;;;;;;;;;4822792;29;20069;-74
2023/03/21 12:24:38;;;;;;;0.10;0.10;;;;;;;;;;4828840;29;20412;-73
2023/03/21 12:27:05;;;;;;;0.10;0.10;;;;;;;;;;4820584;29;20496;-73
2023/03/21 12:29:40;;;;;;;0.10;0.10;;;;;;;;;;4821357;29;20095;-73
2023/03/21 12:32:40;;;;;;;0.15;0.15;;;;;;;;;;4820408;29;20137;-73
2023/03/21 12:35:31;;;;;;;0.10;0.10;;;;;;;;;;4833472;29;20090;-73
2023/03/21 12:37:57;;;;;;;0.10;0.10;;;;;;;;;;4821743;29;20096;-73
2023/03/21 12:40:26;;;;;;;0.10;0.10;;;;;;;;;;4839717;29;20046;-73
2023/03/21 12:43:19;;;;;;;0.13;0.13;;;;;;;;;;4837724;29;20141;-73
2023/03/21 12:45:47;;;;;;;0.10;0.10;;;;;;;;;;4808771;29;20563;-73
2023/03/21 12:48:18;;;;;;;0.20;0.20;;;;;;;;;;4839533;29;20050;-73
2023/03/21 12:50:44;;;;;;;;;;;;;;;;;;4823555;29;20483;-73
2023/03/21 12:53:14;;;;;;;0.10;0.10;;;;;;;;;;4837770;29;19980;-73
2023/03/21 12:55:40;;;;;;;0.20;0.20;;;;;;;;;;4839751;29;20045;-73
2023/03/21 12:58:13;;;;;;;0.20;0.20;;;;;;;;;;4822288;29;20498;-73
2023/03/21 13:00:50;;;;;;;0.10;0.10;;;;;;;;;;4822074;29;20102;-73
2023/03/21 13:03:20;;;;;;;0.17;0.17;;;;;;;;;;4839158;29;20157;-73
2023/03/21 13:06:01;;;;;;;0.10;0.10;;;;;;;;;;4838934;29;20042;-73
2023/03/21 13:08:30;;;;;;;0.20;0.20;;;;;;;;;;4839547;29;20137;-73
2023/03/21 13:10:57;;;;;;;0.20;0.20;;;;;;;;;;4820229;29;20187;-73
2023/03/21 13:13:28;;;;;;;0.10;0.10;;;;;;;;;;4819512;29;20042;-73
2023/03/21 13:16:03;;;;;;;0.20;0.20;;;;;;;;;;4822344;29;20053;-73
2023/03/21 13:18:33;;;;;;;0.20;0.20;;;;;;;;;;4838647;29;20615;-73
2023/03/21 13:21:08;;;;;;;0.20;0.20;;;;;;;;;;4838473;29;20486;-73
2023/03/21 13:23:36;;;;;;;0.17;0.17;;;;;;;;;;4838129;29;20042;-73
2023/03/21 13:26:02;;;;;;;0.20;0.20;;;;;;;;;;4839200;29;20483;-73
2023/03/21 13:28:30;;;;;;;0.10;0.10;;;;;;;;;;4820663;29;20136;-73
2023/03/21 13:31:15;;;;;;;0.10;0.10;;;;;;;;;;4839068;29;20052;-73
2023/03/21 13:33:43;;;;;;;0.20;0.20;;;;;;;;;;4829058;29;20049;-75
2023/03/21 13:36:13;;;;;;;0.10;0.10;;;;;;;;;;4822057;29;20054;-74
2023/03/21 13:38:39;;;;;;;0.20;0.20;;;;;;;;;;4835639;29;20045;-74
2023/03/21 13:41:07;;;;;;;0.10;0.10;;;;;;;;;;4821820;29;20056;-73
2023/03/21 13:43:52;;;;;;;0.20;0.20;;;;;;;;;;4821339;29;20046;-73
2023/03/21 13:46:25;;;;;;;0.10;0.10;;;;;;;;;;4824351;29;20065;-73
2023/03/21 13:48:57;;;;;;;0.20;0.20;;;;;;;;;;4822162;29;20050;-73
2023/03/21 13:51:35;;;;;;;0.20;0.20;;;;;;;;;;4824960;29;20673;-74
2023/03/21 13:54:03;;;;;;;0.20;0.20;;;;;;;;;;4825764;29;20056;-74
2023/03/21 13:56:32;;;;;;;0.20;0.20;;;;;;;;;;4823546;29;20050;-73
2023/03/21 13:59:02;;;;;;;0.20;0.20;;;;;;;;;;4828197;29;20050;-73
2023/03/21 14:01:31;;;;;;;0.10;0.10;;;;;;;;;;4825093;29;20045;-74
2023/03/21 14:04:04;;;;;;;0.20;0.20;;;;;;;;;;4825262;29;20141;-73
2023/03/21 14:06:33;;;;;;;0.10;0.10;;;;;;;;;;4824757;29;20073;-74
2023/03/21 14:09:00;;;;;;;0.15;0.15;;;;;;;;;;4825650;29;20050;-73
2023/03/21 14:11:27;;;;;;;0.20;0.20;;;;;;;;;;4819599;29;20079;-74
2023/03/21 14:13:53;;;;;;;0.20;0.20;;;;;;;;;;4821980;29;20050;-74
2023/03/21 14:16:20;;;;;;;0.20;0.20;;;;;;;;;;4823406;29;20066;-75
2023/03/21 14:18:54;;;;;;;0.10;0.10;;;;;;;;;;4841876;29;20050;-75
2023/03/21 14:21:22;;;;;;;0.20;0.20;;;;;;;;;;4841158;29;20065;-75
2023/03/21 14:23:55;;;;;;;0.20;0.20;;;;;;;;;;4840935;29;20538;-75
2023/03/21 14:26:25;;;;;;;0.15;0.15;;;;;;;;;;4823329;29;20383;-74
2023/03/21 14:28:54;;;;;;;0.10;0.10;;;;;;;;;;4841949;29;20157;-75
2023/03/21 14:31:23;;;;;;;0.10;0.10;;;;;;;;;;4823916;29;20085;-75
2023/03/21 14:33:53;;;;;;;0.20;0.20;;;;;;;;;;4825485;29;20050;-75
2023/03/21 14:36:21;;;;;;;0.20;0.20;;;;;;;;;;4841151;29;20061;-75
2023/03/21 14:39:01;;;;;;;0.15;0.15;;;;;;;;;;4824669;29;20054;-75
2023/03/21 14:41:31;;;;;;;0.20;0.20;;;;;;;;;;4821498;29;20430;-75
2023/03/21 14:44:00;;;;;;;0.20;0.20;;;;;;;;;;4840470;29;20407;-76
2023/03/21 14:46:26;;;;;;;0.20;0.20;;;;;;;;;;4822246;29;20054;-75
2023/03/21 14:48:52;;;;;;;0.20;0.20;;;;;;;;;;4823575;29;20069;-76
2023/03/21 14:51:19;;;;;;;0.20;0.20;;;;;;;;;;4824009;29;20137;-75
2023/03/21 14:53:45;;;;;;;0.20;0.20;;;;;;;;;;4825344;29;20073;-75
2023/03/21 14:56:20;;;;;;;0.20;0.20;;;;;;;;;;4840301;29;20128;-75
2023/03/21 14:58:46;;;;;;;0.20;0.20;;;;;;;;;;4804732;29;20421;-75
2023/03/21 15:01:17;;;;;;;0.20;0.20;;;;;;;;;;4806917;29;20046;-75
2023/03/21 15:03:49;;;;;;;1.42;1.02;;;;;;;;;;4823038;29;20141;-75
2023/03/21 15:06:15;;;;;;;0.10;0.10;;;;;;;;;;4816987;29;20054;-75
2023/03/21 15:08:52;;;;;;;0.20;0.20;;;;;;;;;;4820486;29;20049;-75
2023/03/21 15:11:18;;;;;;;0.20;0.20;;;;;;;;;;4839311;29;20403;-75
2023/03/21 15:13:45;;;;;;;0.20;0.20;;;;;;;;;;4825814;29;20490;-75
2023/03/21 15:16:20;;;;;;;0.15;0.15;;;;;;;;;;4811877;29;20050;-79
2023/03/21 15:18:49;;;;;;;0.20;0.20;;;;;;;;;;4824986;29;20250;-80
2023/03/21 15:21:25;;;;;;;0.20;0.20;;;;;;;;;;4838212;29;20120;-79
2023/03/21 15:23:53;;;;;;;0.20;0.20;;;;;;;;;;4840802;29;20061;-79
2023/03/21 15:26:21;;;;;;;0.10;0.10;;;;;;;;;;4842018;29;20042;-79
2023/03/21 15:28:49;;;;;;;0.20;0.20;;;;;;;;;;4830447;29;20202;-76
2023/03/21 15:31:19;;;;;;;0.20;0.20;;;;;;;;;;4840824;29;20125;-74
2023/03/21 15:33:50;;;;;;;0.10;0.10;;;;;;;;;;4823815;29;20054;-74
2023/03/21 15:36:20;;;;;;;0.10;0.10;;;;;;;;;;4839129;29;20394;-74
2023/03/21 15:38:47;;;;;;;0.20;0.20;;;;;;;;;;4824056;29;20133;-74
2023/03/21 15:41:14;;;;;;;0.20;0.20;;;;;;;;;;4822363;29;20058;-78
2023/03/21 15:43:41;;;;;;;0.20;0.20;;;;;;;;;;4823648;29;20061;-75
2023/03/21 15:46:12;;;;;;;0.10;0.10;;;;;;;;;;4840499;29;20395;-75
2023/03/21 15:48:39;;;;;;;0.10;0.10;;;;;;;;;;4839464;29;20083;-77
2023/03/21 15:51:06;;;;;;;0.10;0.10;;;;;;;;;;4841553;23;20128;-77
2023/03/21 15:53:33;;;;;;;0.10;0.10;;;;;;;;;;4852527;29;20574;-78
2023/03/21 15:56:04;;;;;;;0.10;0.10;;;;;;;;;;4837479;29;20061;-74
2023/03/21 15:58:48;;;;;;;0.20;0.20;;;;;;;;;;4832691;29;20053;-73
2023/03/21 16:01:16;;;;;;;0.10;0.10;;;;;;;;;;4857908;29;20046;-74
2023/03/21 16:03:51;;;;;;;0.20;0.20;;;;;;;;;;4856281;29;20092;-74
2023/03/21 16:06:20;;;;;;;0.10;0.10;;;;;;;;;;4844448;29;20045;-74
2023/03/21 16:09:04;;;;;;;0.10;0.10;;;;;;;;;;4823187;29;20058;-73
2023/03/21 16:11:42;;;;;;;0.20;0.20;;;;;;;;;;4852259;29;20493;-76
2023/03/21 16:14:08;;;;;;;0.10;0.10;;;;;;;;;;4837730;29;20053;-75
2023/03/21 16:16:37;;;;;;;0.20;0.20;;;;;;;;;;4840386;29;20053;-74
2023/03/21 16:19:03;;;;;;;0.22;0.22;;;;;;;;;;4839939;29;20049;-74
2023/03/21 16:21:30;;;;;;;0.10;0.10;;;;;;;;;;4856562;29;20050;-74
2023/03/21 16:23:57;;;;;;;0.20;0.20;;;;;;;;;;4841011;29;20041;-74
2023/03/21 16:26:24;;;;;;;0.20;0.20;;;;;;;;;;4840733;29;20465;-74
2023/03/21 16:28:51;;;;;;;0.32;0.30;;;;;;;;;;4841421;29;20056;-74
2023/03/21 16:31:19;;;;;;;0.17;0.17;;;;;;;;;;4839906;29;20124;-75
2023/03/21 16:33:47;;;;;;;0.10;0.10;;;;;;;;;;4856262;29;20388;-74
2023/03/21 16:36:16;;;;;;;0.20;0.20;;;;;;;;;;4854049;29;20049;-74
2023/03/21 16:38:43;;;;;;;0.20;0.20;;;;;;;;;;4831075;29;20077;-74
2023/03/21 16:41:12;;;;;;;0.17;0.17;;;;;;;;;;4837394;29;20045;-73
2023/03/21 16:43:42;;;;;;;0.10;0.10;;;;;;;;;;4832328;29;20521;-74
2023/03/21 16:46:12;;;;;;;0.10;0.10;;;;;;;;;;4823236;29;20076;-74
2023/03/21 16:48:38;;;;;;;0.20;0.20;;;;;;;;;;4841202;29;20114;-74
2023/03/21 16:51:04;;;;;;;0.10;0.10;;;;;;;;;;4843555;29;20089;-74
2023/03/21 16:53:30;;;;;;;0.20;0.20;;;;;;;;;;4838322;29;20568;-73
2023/03/21 16:56:01;;;;;;;0.15;0.15;;;;;;;;;;4845903;29;20037;-74
2023/03/21 16:58:28;;;;;;;0.15;0.15;;;;;;;;;;4836014;29;20058;-73
2023/03/21 17:00:54;;;;;;;0.20;0.20;;;;;;;;;;4840387;29;20050;-74
2023/03/21 18:55:13;;;;;;;0.10;0.10;;;;;;;;;;4901470;23;20133;-76
2023/03/21 18:57:40;;;;;;;0.20;0.20;;;;;;;;;;4838161;29;20053;-77
2023/03/21 19:00:20;;;;;;;0.20;0.20;;;;;;;;;;4858726;29;20522;-78
2023/03/21 19:02:48;;;;;;;0.15;0.15;;;;;;;;;;4844812;29;20109;-78
2023/03/21 19:05:14;;;;;;;0.13;0.13;;;;;;;;;;4841010;29;20053;-78
2023/03/21 19:07:40;;;;;;;0.10;0.10;;;;;;;;;;4850452;29;20133;-79
2023/03/21 20:36:52;;;;;;;0.10;0.10;;;;;;;;;;5234651;23;20058;-76
2023/03/21 20:39:18;;;;;;;0.13;0.13;;;;;;;;;;4841956;29;20053;-77
2023/03/21 20:41:53;;;;;;;0.10;0.10;;;;;;;;;;4831160;29;20136;-78
2023/03/21 20:44:20;;;;;;;0.20;0.20;;;;;;;;;;4838802;29;20076;-78
2023/03/21 20:46:46;;;;;;;0.17;0.17;;;;;;;;;;4857149;29;20614;-78
2023/03/21 20:49:15;;;;;;;0.10;0.10;;;;;;;;;;4855782;29;20474;-78
2023/03/21 20:51:42;;;;;;;0.10;0.10;;;;;;;;;;4853453;29;20136;-78
2023/03/21 20:54:20;;;;;;;0.20;0.20;;;;;;;;;;4830823;29;20052;-78
2023/03/21 20:56:46;;;;;;;0.10;0.10;;;;;;;;;;4854761;29;20053;-77
2023/03/21 20:59:22;;;;;;;0.20;0.20;;;;;;;;;;4854275;29;20254;-78
2023/03/21 22:20:23;;;;;;;0.10;0.10;;;;;;;;;;5220462;23;19924;-77
2023/03/21 23:00:46;;;;;;;0.10;0.10;;;;;;;;;;5105351;23;20453;-74
2023/03/21 23:03:13;;;;;;;0.20;0.20;;;;;;;;;;4838561;29;20049;-74
2023/03/21 23:05:40;;;;;;;0.10;0.10;;;;;;;;;;4836936;29;20052;-74
2023/03/21 23:08:06;;;;;;;0.13;0.13;;;;;;;;;;4832852;29;20554;-75
2023/03/21 23:10:32;;;;;;;0.10;0.10;;;;;;;;;;4833753;29;20056;-74
2023/03/21 23:12:58;;;;;;;0.20;0.20;;;;;;;;;;4828824;29;20042;-75
2023/03/21 23:15:24;;;;;;;0.10;0.10;;;;;;;;;;4834158;29;20144;-75
2023/03/21 23:17:50;;;;;;;0.20;0.20;;;;;;;;;;4847405;29;20069;-74
2023/03/21 23:20:17;;;;;;;0.10;0.10;;;;;;;;;;4833597;29;20136;-73
2023/03/21 23:22:45;;;;;;;0.10;0.10;;;;;;;;;;4828558;29;20049;-75
2023/03/21 23:25:11;;;;;;;0.13;0.13;;;;;;;;;;4851557;29;20057;-74
2023/03/21 23:27:46;;;;;;;0.17;0.17;;;;;;;;;;4839061;29;20540;-75
2023/03/21 23:30:12;;;;;;;0.10;0.10;;;;;;;;;;4833907;29;20411;-74
2023/03/21 23:32:38;;;;;;;0.15;0.15;;;;;;;;;;4857450;29;20045;-75
2023/03/21 23:35:05;;;;;;;0.10;0.10;;;;;;;;;;4846352;29;20052;-75
2023/03/21 23:37:31;;;;;;;0.10;0.10;;;;;;;;;;4850752;29;20105;-75
2023/03/21 23:39:57;;;;;;;0.10;0.10;;;;;;;;;;4832794;29;20116;-75
2023/03/21 23:42:26;;;;;;;0.10;0.10;;;;;;;;;;4839206;29;20107;-74
2023/03/21 23:44:52;;;;;;;0.10;0.10;;;;;;;;;;4835013;29;20077;-75
2023/03/21 23:47:18;;;;;;;0.10;0.10;;;;;;;;;;4854984;29;20057;-75
2023/03/21 23:49:46;;;;;;;0.20;0.20;;;;;;;;;;4830039;29;20455;-74
2023/03/21 23:52:12;;;;;;;0.10;0.10;;;;;;;;;;4836201;29;20061;-75
2023/03/21 23:54:38;;;;;;;0.10;0.10;;;;;;;;;;4832786;29;20137;-75
2023/03/21 23:57:04;;;;;;;0.10;0.10;;;;;;;;;;4844091;29;20125;-75
2023/03/21 23:59:30;;;;;;;0.10;0.10;;;;;;;;;;4844400;29;20052;-76
